Nearby METAR Reports

 

LELL - Sabadell, Spain
Distance from station: O 18km
aktuell: 17/02/2018 20:00
sehr leichter Niederschlag, stark bewölkt
sehr leichter Niederschlag, stark bewölkt
 Wind von S
Wind: S 4 km/h
Temperatur: 12°C
Taupunkt: 10°C
Luftfeuchte: 88%
Luftdruck: 1021 hPa
Zusammenfassung: sehr leichter Niederschlag
Clouds: stark bewölkt
Visibility: 10 km
Cloud details: teilweise bewölkt 488 m
stark bewölkt 732 m
stark bewölkt 1158 m
2018/02/17 19:00 LELL 171900Z AUTO 17002KT 9999 -RA SCT016/// BKN024/// BKN038/// 12/10 Q1021
LEBL - Barcelona Airpor, Spain
Distance from station: SSO 33km
aktuell: 17/02/2018 19:30
stark bewölkt
stark bewölkt
 Wind von SSO
Wind: SSO 7 km/h
Temperatur: 13°C
Taupunkt: 9°C
Luftfeuchte: 77%
Luftdruck: 1022 hPa
Clouds: stark bewölkt
Visibility: 10 km
Cloud details: Few Clouds 610 m
stark bewölkt 1097 m
2018/02/17 18:30 LEBL 171830Z 15004KT 9999 FEW020 BKN036 13/09 Q1022 TEMPO 4000 BR
LERS - Reus (civ/Mil), Spain
Distance from station: SW 75km
aktuell: 17/02/2018 20:00
Mist, Few clouds
Mist, Few clouds
 Wind von calm
Wind: Windstill
Temperatur: 12°C
Taupunkt: 8°C
Luftfeuchte: 77%
Luftdruck: 1022 hPa
Zusammenfassung: Mist
Clouds: Few Clouds
Visibility: 5 km
Cloud details: Few Clouds 305 m
2018/02/17 19:00 LERS 171900Z 00000KT 4700 BR FEW010 12/08 Q1022
 
LEGE - Gerona/Costa Bra, Spain
Distance from station: ONO 83km
aktuell: 17/02/2018 20:00
Regen, stark bewölkt
Regen, stark bewölkt
 Wind von NO
Wind: NO 11 km/h
Temperatur: 8°C
Wind Chill: 6°C
Taupunkt: 8°C
Luftfeuchte: 100%
Luftdruck: 1022 hPa
Zusammenfassung: Regen
Clouds: stark bewölkt
Visibility: 7 km
Cloud details: teilweise bewölkt 518 m
stark bewölkt 671 m
2018/02/17 19:00 LEGE 171900Z 05006KT 7000 RA SCT017 BKN022 08/08 Q1022
LFMP - Perpignan/Rivesa, France
Distance from station: NNO 155km
aktuell: 17/02/2018 20:00
teilweise bewölkt
teilweise bewölkt
 Wind von NW
Wind: NW 26 km/h
Temperatur: 11°C
Taupunkt: 4°C
Luftfeuchte: 62%
Luftdruck: 1022 hPa
Clouds: teilweise bewölkt
Visibility: 10 km
2018/02/17 19:00 LFMP 171900Z AUTO 31014KT 280V340 9999 NSC 11/04 Q1022 TEMPO 32020G30KT
LFMK - Carcassonne/Salv, France
Distance from station: N 191km
aktuell: 17/02/2018 20:00
sehr leichter Niederschlag, stark bewölkt
sehr leichter Niederschlag, stark bewölkt
 Wind von WNW
Wind: WNW 20 km/h
Temperatur: 9°C
Wind Chill: 6°C
Taupunkt: 5°C
Luftfeuchte: 76%
Luftdruck: 1024 hPa
Zusammenfassung: sehr leichter Niederschlag
Clouds: stark bewölkt
Visibility: 10 km
Cloud details: Few Clouds 975 m
stark bewölkt 1158 m
stark bewölkt 1372 m
2018/02/17 19:00 LFMK 171900Z AUTO 29011KT 9999 -RA FEW032 BKN038 BKN045 09/05 Q1024
 
LEHC - Huesca-Pirineos, Spain
Distance from station: WNW 193km
aktuell: 17/02/2018 20:00
klar
klar
 Wind von W
Wind: W 24 km/h
Temperatur: 7°C
Wind Chill: 3°C
Taupunkt: -1°C
Luftfeuchte: 57%
Luftdruck: 1020 hPa
Clouds: klar
Visibility: 10 km
2018/02/17 19:00 LEHC 171900Z AUTO 26013KT 9999 NCD 07/M01 Q1020
LFMU - Beziers/Vias, France
Distance from station: NNO 232km
aktuell: 17/02/2018 20:00
teilweise bewölkt
teilweise bewölkt
 Wind von NW
Wind: NW 11 km/h
Temperatur: 10°C
Wind Chill: 8°C
Taupunkt: 3°C
Luftfeuchte: 62%
Luftdruck: 1022 hPa
Clouds: teilweise bewölkt
Visibility: 10 km
2018/02/17 19:00 LFMU 171900Z AUTO 31006KT 9999 NSC 10/03 Q1022 NOSIG
LEPA - Palma De Mallorc, Spain
Distance from station: SSO 233km
aktuell: 17/02/2018 20:00
stark bewölkt
stark bewölkt
 Wind von ONO
Wind: ONO 33 km/h
Temperatur: 14°C
Taupunkt: 10°C
Luftfeuchte: 77%
Luftdruck: 1021 hPa
Clouds: stark bewölkt
Visibility: 10 km
Cloud details: Few Clouds 610 m
stark bewölkt 914 m
2018/02/17 19:00 LEPA 171900Z 07018KT 9999 FEW020 BKN030 14/10 Q1021 NOSIG
 
LFBO - Toulouse/Blagnac, France
Distance from station: N 236km
aktuell: 17/02/2018 20:00
geschlossene Wolkendecke
geschlossene Wolkendecke
 Wind von NW
Wind: NW 17 km/h
Temperatur: 10°C
Wind Chill: 8°C
Taupunkt: 4°C
Luftfeuchte: 67%
Luftdruck: 1025 hPa
Clouds: geschlossene Wolkendecke
Visibility: 10 km
Cloud details: teilweise bewölkt 1311 m
geschlossene Wolkendecke 1646 m
2018/02/17 19:00 LFBO 171900Z AUTO 31009KT 9999 SCT043 OVC054 10/04 Q1025 NOSIG
LFBT - Tarbes/Ossun, France
Distance from station: NW 239km
aktuell: 17/02/2018 20:00
stark bewölkt
stark bewölkt
 Wind von SW
Wind: SW 13 km/h
Temperatur: 6°C
Wind Chill: 3°C
Taupunkt: 4°C
Luftfeuchte: 87%
Luftdruck: 1027 hPa
Clouds: stark bewölkt
Visibility: 10 km
Cloud details: Few Clouds 1128 m
stark bewölkt 1433 m
2018/02/17 19:00 LFBT 171900Z AUTO 23007KT 9999 FEW037 BKN047 06/04 Q1027 TEMPO 4000 SHRA BKN020TCU
LEZG - Zaragoza (mil/Ci, Spain
Distance from station: W 242km
aktuell: 17/02/2018 20:00
Few Clouds
Few Clouds
 Wind von WNW
Wind: WNW 30 km/h
Temperatur: 9°C
Wind Chill: 5°C
Taupunkt: 3°C
Luftfeuchte: 66%
Luftdruck: 1024 hPa
Clouds: Few Clouds
Visibility: 10 km
Cloud details: Few Clouds 2591 m
2018/02/17 19:00 LEZG 171900Z 29016KT 260V320 9999 FEW085 09/03 Q1024